sensor_id;sensor_type;location;lat;lon;timestamp;P1;durP1;ratioP1;P2;durP2;ratioP2
8913;SDS011;4492;48.736;9.092;2023-05-07T00:01:06;6.30;;;3.47;;
8913;SDS011;4492;48.736;9.092;2023-05-07T00:03:32;5.07;;;3.13;;
8913;SDS011;4492;48.736;9.092;2023-05-07T00:05:58;4.67;;;2.77;;
8913;SDS011;4492;48.736;9.092;2023-05-07T00:08:23;3.77;;;2.80;;
8913;SDS011;4492;48.736;9.092;2023-05-07T00:10:49;2.90;;;2.70;;
8913;SDS011;4492;48.736;9.092;2023-05-07T00:13:14;3.20;;;2.90;;
8913;SDS011;4492;48.736;9.092;2023-05-07T00:15:40;4.20;;;3.00;;
8913;SDS011;4492;48.736;9.092;2023-05-07T00:18:06;3.33;;;2.87;;
8913;SDS011;4492;48.736;9.092;2023-05-07T00:20:31;3.73;;;2.83;;
8913;SDS011;4492;48.736;9.092;2023-05-07T00:22:57;4.03;;;2.63;;
8913;SDS011;4492;48.736;9.092;2023-05-07T00:25:22;2.77;;;2.57;;
8913;SDS011;4492;48.736;9.092;2023-05-07T00:27:48;3.40;;;3.07;;
8913;SDS011;4492;48.736;9.092;2023-05-07T00:30:13;4.27;;;2.67;;
8913;SDS011;4492;48.736;9.092;2023-05-07T00:32:39;3.23;;;2.60;;
8913;SDS011;4492;48.736;9.092;2023-05-07T00:35:05;3.10;;;2.53;;
8913;SDS011;4492;48.736;9.092;2023-05-07T00:37:31;4.80;;;3.27;;
8913;SDS011;4492;48.736;9.092;2023-05-07T00:39:57;3.40;;;3.10;;
8913;SDS011;4492;48.736;9.092;2023-05-07T00:42:23;3.83;;;3.03;;
8913;SDS011;4492;48.736;9.092;2023-05-07T00:44:49;4.37;;;3.30;;
8913;SDS011;4492;48.736;9.092;2023-05-07T00:47:16;3.27;;;2.97;;
8913;SDS011;4492;48.736;9.092;2023-05-07T00:49:42;7.00;;;3.50;;
8913;SDS011;4492;48.736;9.092;2023-05-07T00:52:09;3.50;;;3.20;;
8913;SDS011;4492;48.736;9.092;2023-05-07T00:54:38;3.80;;;3.40;;
8913;SDS011;4492;48.736;9.092;2023-05-07T00:57:05;3.73;;;3.43;;
8913;SDS011;4492;48.736;9.092;2023-05-07T00:59:31;4.33;;;3.43;;
8913;SDS011;4492;48.736;9.092;2023-05-07T01:01:57;3.77;;;2.90;;
8913;SDS011;4492;48.736;9.092;2023-05-07T01:04:23;4.57;;;3.47;;
8913;SDS011;4492;48.736;9.092;2023-05-07T01:06:50;4.37;;;3.23;;
8913;SDS011;4492;48.736;9.092;2023-05-07T01:09:16;4.30;;;3.20;;
8913;SDS011;4492;48.736;9.092;2023-05-07T01:11:44;4.37;;;3.80;;
8913;SDS011;4492;48.736;9.092;2023-05-07T01:14:11;5.37;;;3.80;;
8913;SDS011;4492;48.736;9.092;2023-05-07T01:16:36;6.30;;;4.40;;
8913;SDS011;4492;48.736;9.092;2023-05-07T01:19:02;6.33;;;4.30;;
8913;SDS011;4492;48.736;9.092;2023-05-07T01:21:28;5.63;;;3.70;;
8913;SDS011;4492;48.736;9.092;2023-05-07T01:23:58;5.93;;;3.70;;
8913;SDS011;4492;48.736;9.092;2023-05-07T01:26:24;3.60;;;3.30;;
8913;SDS011;4492;48.736;9.092;2023-05-07T01:28:50;5.37;;;3.40;;
8913;SDS011;4492;48.736;9.092;2023-05-07T01:31:15;4.10;;;3.70;;
8913;SDS011;4492;48.736;9.092;2023-05-07T01:33:42;4.27;;;3.40;;
8913;SDS011;4492;48.736;9.092;2023-05-07T01:36:10;4.27;;;3.30;;
8913;SDS011;4492;48.736;9.092;2023-05-07T01:38:38;3.60;;;3.30;;
8913;SDS011;4492;48.736;9.092;2023-05-07T01:41:06;3.80;;;3.50;;
8913;SDS011;4492;48.736;9.092;2023-05-07T01:43:31;7.03;;;3.40;;
8913;SDS011;4492;48.736;9.092;2023-05-07T01:45:57;3.30;;;3.00;;
8913;SDS011;4492;48.736;9.092;2023-05-07T01:48:24;3.47;;;3.17;;
8913;SDS011;4492;48.736;9.092;2023-05-07T01:50:50;3.97;;;3.03;;
8913;SDS011;4492;48.736;9.092;2023-05-07T01:53:17;6.00;;;3.50;;
8913;SDS011;4492;48.736;9.092;2023-05-07T01:55:42;3.80;;;3.47;;
8913;SDS011;4492;48.736;9.092;2023-05-07T01:58:08;4.23;;;2.80;;
8913;SDS011;4492;48.736;9.092;2023-05-07T02:00:33;3.03;;;2.83;;
8913;SDS011;4492;48.736;9.092;2023-05-07T02:02:59;3.77;;;2.90;;
8913;SDS011;4492;48.736;9.092;2023-05-07T02:05:24;2.83;;;2.63;;
8913;SDS011;4492;48.736;9.092;2023-05-07T02:07:50;3.00;;;2.80;;
8913;SDS011;4492;48.736;9.092;2023-05-07T02:10:15;2.63;;;2.43;;
8913;SDS011;4492;48.736;9.092;2023-05-07T02:12:41;6.13;;;2.97;;
8913;SDS011;4492;48.736;9.092;2023-05-07T02:15:07;3.43;;;2.80;;
8913;SDS011;4492;48.736;9.092;2023-05-07T02:17:33;3.37;;;2.77;;
8913;SDS011;4492;48.736;9.092;2023-05-07T02:19:58;2.57;;;2.37;;
8913;SDS011;4492;48.736;9.092;2023-05-07T02:22:24;2.57;;;2.37;;
8913;SDS011;4492;48.736;9.092;2023-05-07T02:24:50;3.07;;;2.77;;
8913;SDS011;4492;48.736;9.092;2023-05-07T02:27:16;4.73;;;2.70;;
8913;SDS011;4492;48.736;9.092;2023-05-07T02:29:41;2.50;;;2.30;;
8913;SDS011;4492;48.736;9.092;2023-05-07T02:32:07;2.90;;;2.60;;
8913;SDS011;4492;48.736;9.092;2023-05-07T02:34:32;2.50;;;2.30;;
8913;SDS011;4492;48.736;9.092;2023-05-07T02:36:58;2.97;;;2.30;;
8913;SDS011;4492;48.736;9.092;2023-05-07T02:39:23;5.00;;;2.60;;
8913;SDS011;4492;48.736;9.092;2023-05-07T02:41:49;2.87;;;2.40;;
8913;SDS011;4492;48.736;9.092;2023-05-07T02:44:15;2.80;;;2.60;;
8913;SDS011;4492;48.736;9.092;2023-05-07T02:46:40;3.47;;;2.60;;
8913;SDS011;4492;48.736;9.092;2023-05-07T02:49:05;2.80;;;2.60;;
8913;SDS011;4492;48.736;9.092;2023-05-07T02:51:31;4.07;;;2.80;;
8913;SDS011;4492;48.736;9.092;2023-05-07T02:53:57;2.93;;;2.53;;
8913;SDS011;4492;48.736;9.092;2023-05-07T02:56:22;3.13;;;2.60;;
8913;SDS011;4492;48.736;9.092;2023-05-07T02:58:50;2.70;;;2.50;;
8913;SDS011;4492;48.736;9.092;2023-05-07T03:01:16;2.90;;;2.60;;
8913;SDS011;4492;48.736;9.092;2023-05-07T03:03:41;3.17;;;2.87;;
8913;SDS011;4492;48.736;9.092;2023-05-07T03:06:07;3.00;;;2.70;;
8913;SDS011;4492;48.736;9.092;2023-05-07T03:08:32;3.07;;;2.80;;
8913;SDS011;4492;48.736;9.092;2023-05-07T03:10:58;3.07;;;2.77;;
8913;SDS011;4492;48.736;9.092;2023-05-07T03:13:23;3.63;;;2.93;;
8913;SDS011;4492;48.736;9.092;2023-05-07T03:15:49;5.93;;;2.50;;
8913;SDS011;4492;48.736;9.092;2023-05-07T03:18:15;3.13;;;2.83;;
8913;SDS011;4492;48.736;9.092;2023-05-07T03:20:40;3.00;;;2.70;;
8913;SDS011;4492;48.736;9.092;2023-05-07T03:23:06;2.93;;;2.57;;
8913;SDS011;4492;48.736;9.092;2023-05-07T03:25:31;2.90;;;2.70;;
8913;SDS011;4492;48.736;9.092;2023-05-07T03:27:57;3.60;;;2.97;;
8913;SDS011;4492;48.736;9.092;2023-05-07T03:30:22;3.90;;;2.90;;
8913;SDS011;4492;48.736;9.092;2023-05-07T03:32:48;3.60;;;3.00;;
8913;SDS011;4492;48.736;9.092;2023-05-07T03:35:14;3.77;;;2.70;;
8913;SDS011;4492;48.736;9.092;2023-05-07T03:37:39;2.93;;;2.73;;
8913;SDS011;4492;48.736;9.092;2023-05-07T03:40:05;3.47;;;3.17;;
8913;SDS011;4492;48.736;9.092;2023-05-07T03:42:32;4.60;;;3.30;;
8913;SDS011;4492;48.736;9.092;2023-05-07T03:44:58;5.53;;;3.30;;
8913;SDS011;4492;48.736;9.092;2023-05-07T03:47:23;2.90;;;2.70;;
8913;SDS011;4492;48.736;9.092;2023-05-07T03:49:49;2.70;;;2.50;;
8913;SDS011;4492;48.736;9.092;2023-05-07T03:52:15;3.10;;;2.80;;
8913;SDS011;4492;48.736;9.092;2023-05-07T03:54:41;2.90;;;2.57;;
8913;SDS011;4492;48.736;9.092;2023-05-07T03:57:06;2.80;;;2.60;;
8913;SDS011;4492;48.736;9.092;2023-05-07T03:59:32;2.90;;;2.70;;
8913;SDS011;4492;48.736;9.092;2023-05-07T04:01:57;3.00;;;2.70;;
8913;SDS011;4492;48.736;9.092;2023-05-07T04:04:23;3.30;;;3.00;;
8913;SDS011;4492;48.736;9.092;2023-05-07T04:06:48;3.00;;;2.77;;
8913;SDS011;4492;48.736;9.092;2023-05-07T04:09:14;3.33;;;2.93;;
8913;SDS011;4492;48.736;9.092;2023-05-07T04:11:40;2.87;;;2.63;;
8913;SDS011;4492;48.736;9.092;2023-05-07T04:14:05;3.27;;;2.97;;
8913;SDS011;4492;48.736;9.092;2023-05-07T04:16:31;3.13;;;2.83;;
8913;SDS011;4492;48.736;9.092;2023-05-07T04:18:57;3.10;;;2.80;;
8913;SDS011;4492;48.736;9.092;2023-05-07T04:21:22;3.33;;;3.03;;
8913;SDS011;4492;48.736;9.092;2023-05-07T04:23:48;3.33;;;3.03;;
8913;SDS011;4492;48.736;9.092;2023-05-07T04:26:14;3.60;;;2.97;;
8913;SDS011;4492;48.736;9.092;2023-05-07T04:28:40;3.13;;;2.83;;
8913;SDS011;4492;48.736;9.092;2023-05-07T04:31:06;3.53;;;3.23;;
8913;SDS011;4492;48.736;9.092;2023-05-07T04:33:32;3.73;;;3.37;;
8913;SDS011;4492;48.736;9.092;2023-05-07T04:36:01;2.90;;;2.70;;
8913;SDS011;4492;48.736;9.092;2023-05-07T04:38:28;5.50;;;3.10;;
8913;SDS011;4492;48.736;9.092;2023-05-07T04:40:58;7.00;;;3.00;;
8913;SDS011;4492;48.736;9.092;2023-05-07T04:43:28;4.77;;;3.20;;
8913;SDS011;4492;48.736;9.092;2023-05-07T04:45:53;2.70;;;2.50;;
8913;SDS011;4492;48.736;9.092;2023-05-07T04:48:19;3.87;;;2.77;;
8913;SDS011;4492;48.736;9.092;2023-05-07T04:50:48;2.60;;;2.40;;
8913;SDS011;4492;48.736;9.092;2023-05-07T04:53:14;2.67;;;2.47;;
8913;SDS011;4492;48.736;9.092;2023-05-07T04:55:40;3.27;;;2.77;;
8913;SDS011;4492;48.736;9.092;2023-05-07T04:58:05;3.00;;;2.80;;
8913;SDS011;4492;48.736;9.092;2023-05-07T05:00:31;2.87;;;2.67;;
8913;SDS011;4492;48.736;9.092;2023-05-07T05:02:56;3.40;;;2.70;;
8913;SDS011;4492;48.736;9.092;2023-05-07T05:05:22;2.70;;;2.50;;
8913;SDS011;4492;48.736;9.092;2023-05-07T05:07:47;2.60;;;2.40;;
8913;SDS011;4492;48.736;9.092;2023-05-07T05:10:13;2.40;;;2.20;;
8913;SDS011;4492;48.736;9.092;2023-05-07T05:12:38;2.73;;;2.50;;
8913;SDS011;4492;48.736;9.092;2023-05-07T05:15:04;3.77;;;2.60;;
8913;SDS011;4492;48.736;9.092;2023-05-07T05:17:30;2.70;;;2.50;;
8913;SDS011;4492;48.736;9.092;2023-05-07T05:19:56;2.50;;;2.30;;
8913;SDS011;4492;48.736;9.092;2023-05-07T05:22:21;2.77;;;2.30;;
8913;SDS011;4492;48.736;9.092;2023-05-07T05:24:47;3.73;;;2.73;;
8913;SDS011;4492;48.736;9.092;2023-05-07T05:27:12;2.50;;;2.30;;
8913;SDS011;4492;48.736;9.092;2023-05-07T05:29:38;4.10;;;2.87;;
8913;SDS011;4492;48.736;9.092;2023-05-07T05:32:03;2.87;;;2.67;;
8913;SDS011;4492;48.736;9.092;2023-05-07T05:34:29;2.70;;;2.50;;
8913;SDS011;4492;48.736;9.092;2023-05-07T05:36:54;3.70;;;2.60;;
8913;SDS011;4492;48.736;9.092;2023-05-07T05:39:20;3.10;;;2.80;;
8913;SDS011;4492;48.736;9.092;2023-05-07T05:41:47;3.10;;;2.80;;
8913;SDS011;4492;48.736;9.092;2023-05-07T05:44:12;3.20;;;3.00;;
8913;SDS011;4492;48.736;9.092;2023-05-07T05:46:38;3.30;;;3.00;;
8913;SDS011;4492;48.736;9.092;2023-05-07T05:49:03;5.07;;;2.90;;
8913;SDS011;4492;48.736;9.092;2023-05-07T05:51:29;3.07;;;2.53;;
8913;SDS011;4492;48.736;9.092;2023-05-07T05:53:54;4.20;;;3.10;;
8913;SDS011;4492;48.736;9.092;2023-05-07T05:56:20;2.90;;;2.70;;
8913;SDS011;4492;48.736;9.092;2023-05-07T05:58:46;2.63;;;2.43;;
8913;SDS011;4492;48.736;9.092;2023-05-07T06:01:11;2.70;;;2.50;;
8913;SDS011;4492;48.736;9.092;2023-05-07T06:03:37;3.83;;;2.50;;
8913;SDS011;4492;48.736;9.092;2023-05-07T06:06:02;2.83;;;2.63;;
8913;SDS011;4492;48.736;9.092;2023-05-07T06:08:31;3.17;;;2.87;;
8913;SDS011;4492;48.736;9.092;2023-05-07T06:10:56;3.17;;;2.90;;
8913;SDS011;4492;48.736;9.092;2023-05-07T06:13:23;2.63;;;2.43;;
8913;SDS011;4492;48.736;9.092;2023-05-07T06:15:49;3.17;;;2.53;;
8913;SDS011;4492;48.736;9.092;2023-05-07T06:18:14;3.53;;;2.60;;
8913;SDS011;4492;48.736;9.092;2023-05-07T06:20:40;3.10;;;2.80;;
8913;SDS011;4492;48.736;9.092;2023-05-07T06:23:05;3.93;;;2.33;;
8913;SDS011;4492;48.736;9.092;2023-05-07T06:25:31;4.27;;;2.40;;
8913;SDS011;4492;48.736;9.092;2023-05-07T06:27:56;2.53;;;2.10;;
8913;SDS011;4492;48.736;9.092;2023-05-07T06:30:22;3.00;;;2.80;;
8913;SDS011;4492;48.736;9.092;2023-05-07T06:32:47;4.67;;;2.80;;
8913;SDS011;4492;48.736;9.092;2023-05-07T06:35:13;4.33;;;2.83;;
8913;SDS011;4492;48.736;9.092;2023-05-07T06:37:38;2.80;;;2.63;;
8913;SDS011;4492;48.736;9.092;2023-05-07T06:40:07;3.00;;;2.43;;
8913;SDS011;4492;48.736;9.092;2023-05-07T06:42:33;3.03;;;2.83;;
8913;SDS011;4492;48.736;9.092;2023-05-07T06:45:00;4.40;;;3.20;;
8913;SDS011;4492;48.736;9.092;2023-05-07T06:47:25;4.43;;;3.20;;
8913;SDS011;4492;48.736;9.092;2023-05-07T06:49:51;3.60;;;3.30;;
8913;SDS011;4492;48.736;9.092;2023-05-07T06:52:16;3.57;;;3.27;;
8913;SDS011;4492;48.736;9.092;2023-05-07T06:54:42;4.80;;;3.10;;
8913;SDS011;4492;48.736;9.092;2023-05-07T06:57:07;3.60;;;2.63;;
8913;SDS011;4492;48.736;9.092;2023-05-07T06:59:33;3.20;;;3.00;;
8913;SDS011;4492;48.736;9.092;2023-05-07T07:01:58;3.97;;;3.37;;
8913;SDS011;4492;48.736;9.092;2023-05-07T07:04:24;3.40;;;3.10;;
8913;SDS011;4492;48.736;9.092;2023-05-07T07:06:51;3.60;;;3.30;;
8913;SDS011;4492;48.736;9.092;2023-05-07T07:09:17;3.40;;;3.10;;
8913;SDS011;4492;48.736;9.092;2023-05-07T07:11:43;3.23;;;2.93;;
8913;SDS011;4492;48.736;9.092;2023-05-07T07:14:08;3.27;;;2.70;;
8913;SDS011;4492;48.736;9.092;2023-05-07T07:16:34;3.27;;;2.80;;
8913;SDS011;4492;48.736;9.092;2023-05-07T07:19:00;3.57;;;3.37;;
8913;SDS011;4492;48.736;9.092;2023-05-07T07:21:25;5.60;;;4.67;;
8913;SDS011;4492;48.736;9.092;2023-05-07T07:23:51;3.37;;;3.10;;
8913;SDS011;4492;48.736;9.092;2023-05-07T07:26:17;3.67;;;3.37;;
8913;SDS011;4492;48.736;9.092;2023-05-07T07:28:43;4.40;;;4.03;;
8913;SDS011;4492;48.736;9.092;2023-05-07T07:31:09;3.50;;;3.00;;
8913;SDS011;4492;48.736;9.092;2023-05-07T07:33:34;3.87;;;3.50;;
8913;SDS011;4492;48.736;9.092;2023-05-07T07:36:00;3.13;;;2.80;;
8913;SDS011;4492;48.736;9.092;2023-05-07T07:38:25;6.37;;;3.20;;
8913;SDS011;4492;48.736;9.092;2023-05-07T07:40:51;4.13;;;3.67;;
8913;SDS011;4492;48.736;9.092;2023-05-07T07:43:16;3.27;;;3.03;;
8913;SDS011;4492;48.736;9.092;2023-05-07T07:45:42;3.33;;;3.03;;
8913;SDS011;4492;48.736;9.092;2023-05-07T07:48:07;3.20;;;2.90;;
8913;SDS011;4492;48.736;9.092;2023-05-07T07:50:33;4.07;;;2.60;;
8913;SDS011;4492;48.736;9.092;2023-05-07T07:52:58;3.60;;;2.83;;
8913;SDS011;4492;48.736;9.092;2023-05-07T07:55:25;2.43;;;2.33;;
8913;SDS011;4492;48.736;9.092;2023-05-07T07:57:52;3.67;;;2.73;;
8913;SDS011;4492;48.736;9.092;2023-05-07T08:00:17;3.87;;;2.70;;
8913;SDS011;4492;48.736;9.092;2023-05-07T08:02:43;2.80;;;2.60;;
8913;SDS011;4492;48.736;9.092;2023-05-07T08:05:08;2.40;;;2.30;;
8913;SDS011;4492;48.736;9.092;2023-05-07T08:07:34;4.00;;;2.50;;
8913;SDS011;4492;48.736;9.092;2023-05-07T08:10:00;3.53;;;3.23;;
8913;SDS011;4492;48.736;9.092;2023-05-07T08:12:25;3.17;;;2.90;;
8913;SDS011;4492;48.736;9.092;2023-05-07T08:14:51;6.00;;;5.23;;
8913;SDS011;4492;48.736;9.092;2023-05-07T08:17:17;2.40;;;2.20;;
8913;SDS011;4492;48.736;9.092;2023-05-07T08:19:42;2.77;;;2.57;;
8913;SDS011;4492;48.736;9.092;2023-05-07T08:22:08;3.13;;;2.83;;
8913;SDS011;4492;48.736;9.092;2023-05-07T08:24:35;2.70;;;2.33;;
8913;SDS011;4492;48.736;9.092;2023-05-07T08:27:01;2.10;;;1.90;;
8913;SDS011;4492;48.736;9.092;2023-05-07T08:29:26;3.27;;;2.97;;
8913;SDS011;4492;48.736;9.092;2023-05-07T08:31:52;3.10;;;2.90;;
8913;SDS011;4492;48.736;9.092;2023-05-07T08:34:18;3.87;;;2.50;;
8913;SDS011;4492;48.736;9.092;2023-05-07T08:36:43;4.60;;;4.20;;
8913;SDS011;4492;48.736;9.092;2023-05-07T08:39:11;2.77;;;2.57;;
8913;SDS011;4492;48.736;9.092;2023-05-07T08:41:37;2.47;;;2.30;;
8913;SDS011;4492;48.736;9.092;2023-05-07T08:44:03;4.10;;;2.23;;
8913;SDS011;4492;48.736;9.092;2023-05-07T08:46:31;3.60;;;2.30;;
8913;SDS011;4492;48.736;9.092;2023-05-07T08:48:57;2.60;;;2.40;;
8913;SDS011;4492;48.736;9.092;2023-05-07T08:51:23;2.80;;;2.43;;
8913;SDS011;4492;48.736;9.092;2023-05-07T08:53:49;2.93;;;2.20;;
8913;SDS011;4492;48.736;9.092;2023-05-07T08:56:15;2.40;;;2.20;;
8913;SDS011;4492;48.736;9.092;2023-05-07T08:58:44;2.67;;;2.47;;
8913;SDS011;4492;48.736;9.092;2023-05-07T09:01:12;2.70;;;2.60;;
8913;SDS011;4492;48.736;9.092;2023-05-07T09:03:39;3.80;;;2.70;;
8913;SDS011;4492;48.736;9.092;2023-05-07T09:06:05;2.83;;;2.63;;
8913;SDS011;4492;48.736;9.092;2023-05-07T09:08:32;3.07;;;2.60;;
8913;SDS011;4492;48.736;9.092;2023-05-07T09:10:58;2.43;;;2.23;;
8913;SDS011;4492;48.736;9.092;2023-05-07T09:13:24;2.90;;;2.70;;
8913;SDS011;4492;48.736;9.092;2023-05-07T09:15:52;3.43;;;2.80;;
8913;SDS011;4492;48.736;9.092;2023-05-07T09:18:17;3.20;;;2.70;;
8913;SDS011;4492;48.736;9.092;2023-05-07T09:20:43;2.53;;;2.43;;
8913;SDS011;4492;48.736;9.092;2023-05-07T09:23:08;2.67;;;2.40;;
8913;SDS011;4492;48.736;9.092;2023-05-07T09:25:34;3.60;;;2.60;;
8913;SDS011;4492;48.736;9.092;2023-05-07T09:28:01;3.17;;;2.80;;
8913;SDS011;4492;48.736;9.092;2023-05-07T09:30:28;2.67;;;2.47;;
8913;SDS011;4492;48.736;9.092;2023-05-07T09:32:55;2.97;;;2.77;;
8913;SDS011;4492;48.736;9.092;2023-05-07T09:35:21;3.13;;;2.93;;
8913;SDS011;4492;48.736;9.092;2023-05-07T09:37:49;3.07;;;2.87;;
8913;SDS011;4492;48.736;9.092;2023-05-07T09:40:21;2.50;;;2.30;;
8913;SDS011;4492;48.736;9.092;2023-05-07T09:42:48;5.80;;;2.93;;
8913;SDS011;4492;48.736;9.092;2023-05-07T09:45:15;3.07;;;2.87;;
8913;SDS011;4492;48.736;9.092;2023-05-07T09:47:47;4.17;;;2.73;;
8913;SDS011;4492;48.736;9.092;2023-05-07T09:50:14;2.80;;;2.60;;
8913;SDS011;4492;48.736;9.092;2023-05-07T09:52:41;4.20;;;3.77;;
8913;SDS011;4492;48.736;9.092;2023-05-07T09:55:08;2.60;;;2.40;;
8913;SDS011;4492;48.736;9.092;2023-05-07T09:57:35;2.57;;;2.30;;
8913;SDS011;4492;48.736;9.092;2023-05-07T10:00:02;3.33;;;2.63;;
8913;SDS011;4492;48.736;9.092;2023-05-07T10:02:31;2.40;;;2.30;;
8913;SDS011;4492;48.736;9.092;2023-05-07T10:05:01;2.47;;;2.27;;
8913;SDS011;4492;48.736;9.092;2023-05-07T10:07:28;2.63;;;2.43;;
8913;SDS011;4492;48.736;9.092;2023-05-07T10:09:55;2.97;;;2.60;;
8913;SDS011;4492;48.736;9.092;2023-05-07T10:12:20;2.47;;;2.27;;
8913;SDS011;4492;48.736;9.092;2023-05-07T10:14:46;2.50;;;2.30;;
8913;SDS011;4492;48.736;9.092;2023-05-07T10:17:13;4.70;;;2.53;;
8913;SDS011;4492;48.736;9.092;2023-05-07T10:19:41;2.77;;;2.27;;
8913;SDS011;4492;48.736;9.092;2023-05-07T10:22:09;2.97;;;2.77;;
8913;SDS011;4492;48.736;9.092;2023-05-07T10:24:36;2.47;;;2.27;;
8913;SDS011;4492;48.736;9.092;2023-05-07T10:27:04;2.60;;;2.40;;
8913;SDS011;4492;48.736;9.092;2023-05-07T10:29:39;2.60;;;2.40;;
8913;SDS011;4492;48.736;9.092;2023-05-07T10:32:39;3.10;;;2.60;;
8913;SDS011;4492;48.736;9.092;2023-05-07T10:35:11;2.27;;;2.07;;
8913;SDS011;4492;48.736;9.092;2023-05-07T10:37:42;2.90;;;2.27;;
8913;SDS011;4492;48.736;9.092;2023-05-07T10:40:09;2.67;;;2.00;;
8913;SDS011;4492;48.736;9.092;2023-05-07T10:42:37;2.57;;;2.37;;
8913;SDS011;4492;48.736;9.092;2023-05-07T10:45:15;4.43;;;2.73;;
8913;SDS011;4492;48.736;9.092;2023-05-07T10:50:33;2.20;;;2.10;;
8913;SDS011;4492;48.736;9.092;2023-05-07T10:55:43;2.60;;;2.40;;
8913;SDS011;4492;48.736;9.092;2023-05-07T10:58:29;2.53;;;2.40;;
8913;SDS011;4492;48.736;9.092;2023-05-07T11:00:57;2.53;;;2.33;;
8913;SDS011;4492;48.736;9.092;2023-05-07T11:03:25;2.40;;;2.20;;
8913;SDS011;4492;48.736;9.092;2023-05-07T11:06:09;2.30;;;2.20;;
8913;SDS011;4492;48.736;9.092;2023-05-07T11:08:54;2.10;;;1.93;;
8913;SDS011;4492;48.736;9.092;2023-05-07T11:17:05;2.90;;;1.93;;
8913;SDS011;4492;48.736;9.092;2023-05-07T11:19:50;2.10;;;1.83;;
8913;SDS011;4492;48.736;9.092;2023-05-07T11:25:04;2.30;;;2.10;;
8913;SDS011;4492;48.736;9.092;2023-05-07T11:27:31;2.80;;;2.47;;
8913;SDS011;4492;48.736;9.092;2023-05-07T11:29:57;3.70;;;2.20;;
8913;SDS011;4492;48.736;9.092;2023-05-07T11:32:24;7.20;;;2.37;;
8913;SDS011;4492;48.736;9.092;2023-05-07T11:34:56;3.23;;;2.40;;
8913;SDS011;4492;48.736;9.092;2023-05-07T11:37:23;2.50;;;1.90;;
8913;SDS011;4492;48.736;9.092;2023-05-07T11:39:51;2.83;;;2.17;;
8913;SDS011;4492;48.736;9.092;2023-05-07T11:42:32;3.03;;;2.00;;
8913;SDS011;4492;48.736;9.092;2023-05-07T11:44:59;3.57;;;2.30;;
8913;SDS011;4492;48.736;9.092;2023-05-07T11:47:25;2.17;;;1.97;;
8913;SDS011;4492;48.736;9.092;2023-05-07T11:49:52;2.47;;;2.27;;
8913;SDS011;4492;48.736;9.092;2023-05-07T11:52:20;2.60;;;2.40;;
8913;SDS011;4492;48.736;9.092;2023-05-07T11:54:50;2.87;;;2.70;;
8913;SDS011;4492;48.736;9.092;2023-05-07T11:57:20;3.63;;;2.77;;
8913;SDS011;4492;48.736;9.092;2023-05-07T11:59:47;4.23;;;3.00;;
8913;SDS011;4492;48.736;9.092;2023-05-07T12:02:13;5.83;;;3.13;;
8913;SDS011;4492;48.736;9.092;2023-05-07T12:04:39;5.87;;;2.90;;
8913;SDS011;4492;48.736;9.092;2023-05-07T12:07:05;4.37;;;3.13;;
8913;SDS011;4492;48.736;9.092;2023-05-07T12:09:35;4.60;;;2.60;;
8913;SDS011;4492;48.736;9.092;2023-05-07T12:12:03;1.93;;;1.73;;
8913;SDS011;4492;48.736;9.092;2023-05-07T12:14:29;5.67;;;1.63;;
8913;SDS011;4492;48.736;9.092;2023-05-07T12:16:55;4.70;;;1.83;;
8913;SDS011;4492;48.736;9.092;2023-05-07T12:19:21;5.83;;;2.10;;
8913;SDS011;4492;48.736;9.092;2023-05-07T12:21:47;2.47;;;1.40;;
8913;SDS011;4492;48.736;9.092;2023-05-07T12:24:14;1.23;;;1.03;;
8913;SDS011;4492;48.736;9.092;2023-05-07T12:26:39;5.17;;;1.27;;
8913;SDS011;4492;48.736;9.092;2023-05-07T12:29:06;1.13;;;0.90;;
8913;SDS011;4492;48.736;9.092;2023-05-07T12:31:32;2.17;;;1.27;;
8913;SDS011;4492;48.736;9.092;2023-05-07T12:33:57;1.97;;;1.20;;
8913;SDS011;4492;48.736;9.092;2023-05-07T12:36:23;4.73;;;1.30;;
8913;SDS011;4492;48.736;9.092;2023-05-07T12:38:49;2.03;;;1.27;;
8913;SDS011;4492;48.736;9.092;2023-05-07T12:41:15;3.03;;;1.50;;
8913;SDS011;4492;48.736;9.092;2023-05-07T12:43:43;1.87;;;1.40;;
8913;SDS011;4492;48.736;9.092;2023-05-07T12:46:10;3.50;;;2.00;;
8913;SDS011;4492;48.736;9.092;2023-05-07T12:48:38;2.30;;;1.30;;
8913;SDS011;4492;48.736;9.092;2023-05-07T12:51:08;4.50;;;1.20;;
8913;SDS011;4492;48.736;9.092;2023-05-07T12:53:39;1.13;;;1.03;;
8913;SDS011;4492;48.736;9.092;2023-05-07T12:56:06;4.47;;;1.80;;
8913;SDS011;4492;48.736;9.092;2023-05-07T12:58:35;2.80;;;1.60;;
8913;SDS011;4492;48.736;9.092;2023-05-07T13:01:01;2.60;;;1.20;;
8913;SDS011;4492;48.736;9.092;2023-05-07T13:03:32;5.27;;;4.00;;
8913;SDS011;4492;48.736;9.092;2023-05-07T13:06:02;1.70;;;1.23;;
8913;SDS011;4492;48.736;9.092;2023-05-07T13:08:35;1.10;;;1.10;;
8913;SDS011;4492;48.736;9.092;2023-05-07T13:11:02;1.90;;;1.33;;
8913;SDS011;4492;48.736;9.092;2023-05-07T13:13:32;1.60;;;1.17;;
8913;SDS011;4492;48.736;9.092;2023-05-07T13:15:58;2.53;;;1.33;;
8913;SDS011;4492;48.736;9.092;2023-05-07T13:18:25;1.67;;;1.30;;
8913;SDS011;4492;48.736;9.092;2023-05-07T13:20:51;2.83;;;1.90;;
8913;SDS011;4492;48.736;9.092;2023-05-07T13:23:18;3.03;;;1.63;;
8913;SDS011;4492;48.736;9.092;2023-05-07T13:25:43;1.40;;;1.30;;
8913;SDS011;4492;48.736;9.092;2023-05-07T13:28:09;1.13;;;0.93;;
8913;SDS011;4492;48.736;9.092;2023-05-07T13:30:34;0.70;;;0.70;;
8913;SDS011;4492;48.736;9.092;2023-05-07T13:33:00;2.63;;;1.47;;
8913;SDS011;4492;48.736;9.092;2023-05-07T13:35:26;2.03;;;1.30;;
8913;SDS011;4492;48.736;9.092;2023-05-07T13:37:51;2.77;;;1.77;;
8913;SDS011;4492;48.736;9.092;2023-05-07T13:40:17;4.23;;;1.47;;
8913;SDS011;4492;48.736;9.092;2023-05-07T13:42:43;1.83;;;1.30;;
8913;SDS011;4492;48.736;9.092;2023-05-07T13:45:09;1.53;;;1.03;;
8913;SDS011;4492;48.736;9.092;2023-05-07T13:47:35;4.20;;;1.23;;
8913;SDS011;4492;48.736;9.092;2023-05-07T13:50:00;2.37;;;1.90;;
8913;SDS011;4492;48.736;9.092;2023-05-07T13:52:26;2.50;;;1.50;;
8913;SDS011;4492;48.736;9.092;2023-05-07T13:54:51;3.87;;;1.40;;
8913;SDS011;4492;48.736;9.092;2023-05-07T13:57:17;3.23;;;2.07;;
8913;SDS011;4492;48.736;9.092;2023-05-07T13:59:43;4.53;;;2.57;;
8913;SDS011;4492;48.736;9.092;2023-05-07T14:02:08;3.03;;;2.17;;
8913;SDS011;4492;48.736;9.092;2023-05-07T14:04:34;4.50;;;1.80;;
8913;SDS011;4492;48.736;9.092;2023-05-07T14:07:00;2.97;;;2.13;;
8913;SDS011;4492;48.736;9.092;2023-05-07T14:09:25;3.97;;;2.20;;
8913;SDS011;4492;48.736;9.092;2023-05-07T14:11:51;4.97;;;2.70;;
8913;SDS011;4492;48.736;9.092;2023-05-07T14:14:17;3.07;;;2.70;;
8913;SDS011;4492;48.736;9.092;2023-05-07T14:16:43;4.90;;;3.20;;
8913;SDS011;4492;48.736;9.092;2023-05-07T14:19:09;4.57;;;2.90;;
8913;SDS011;4492;48.736;9.092;2023-05-07T14:21:35;5.83;;;2.43;;
8913;SDS011;4492;48.736;9.092;2023-05-07T14:24:01;3.33;;;2.00;;
8913;SDS011;4492;48.736;9.092;2023-05-07T14:26:26;4.43;;;2.70;;
8913;SDS011;4492;48.736;9.092;2023-05-07T14:28:52;4.93;;;2.60;;
8913;SDS011;4492;48.736;9.092;2023-05-07T14:31:19;4.20;;;2.53;;
8913;SDS011;4492;48.736;9.092;2023-05-07T14:33:45;5.47;;;2.63;;
8913;SDS011;4492;48.736;9.092;2023-05-07T14:36:11;5.90;;;2.90;;
8913;SDS011;4492;48.736;9.092;2023-05-07T14:38:37;3.87;;;2.77;;
8913;SDS011;4492;48.736;9.092;2023-05-07T14:41:03;2.73;;;2.00;;
8913;SDS011;4492;48.736;9.092;2023-05-07T14:43:28;2.83;;;2.10;;
8913;SDS011;4492;48.736;9.092;2023-05-07T14:45:54;3.57;;;2.00;;
8913;SDS011;4492;48.736;9.092;2023-05-07T14:48:19;4.27;;;2.40;;
8913;SDS011;4492;48.736;9.092;2023-05-07T14:50:46;4.17;;;2.50;;
8913;SDS011;4492;48.736;9.092;2023-05-07T14:53:13;2.20;;;1.97;;
8913;SDS011;4492;48.736;9.092;2023-05-07T14:55:38;4.37;;;2.30;;
8913;SDS011;4492;48.736;9.092;2023-05-07T14:58:04;3.50;;;2.17;;
8913;SDS011;4492;48.736;9.092;2023-05-07T15:00:29;3.10;;;2.20;;
8913;SDS011;4492;48.736;9.092;2023-05-07T15:03:01;4.60;;;2.40;;
8913;SDS011;4492;48.736;9.092;2023-05-07T15:05:31;2.50;;;2.30;;
8913;SDS011;4492;48.736;9.092;2023-05-07T15:07:56;3.73;;;2.07;;
8913;SDS011;4492;48.736;9.092;2023-05-07T15:10:22;2.13;;;1.93;;
8913;SDS011;4492;48.736;9.092;2023-05-07T15:12:47;4.40;;;2.40;;
8913;SDS011;4492;48.736;9.092;2023-05-07T15:15:13;3.13;;;2.20;;
8913;SDS011;4492;48.736;9.092;2023-05-07T15:17:38;4.10;;;2.30;;
8913;SDS011;4492;48.736;9.092;2023-05-07T15:20:04;2.63;;;2.43;;
8913;SDS011;4492;48.736;9.092;2023-05-07T15:22:31;2.83;;;2.10;;
8913;SDS011;4492;48.736;9.092;2023-05-07T15:24:56;3.37;;;2.20;;